sensor_id;sensor_type;location;lat;lon;timestamp;pressure;altitude;pressure_sealevel;temperature;humidity
79413;BME280;68863;49.528;11.010;2024-03-06T00:00:20;98247.66;;;11.34;61.83
79413;BME280;68863;49.528;11.010;2024-03-06T00:01:21;98250.41;;;11.33;61.90
79413;BME280;68863;49.528;11.010;2024-03-06T00:02:21;98250.06;;;11.37;61.79
79413;BME280;68863;49.528;11.010;2024-03-06T00:03:22;98247.56;;;11.12;62.43
79413;BME280;68863;49.528;11.010;2024-03-06T00:04:22;98255.72;;;11.20;62.43
79413;BME280;68863;49.528;11.010;2024-03-06T00:05:23;98258.44;;;11.18;62.08
79413;BME280;68863;49.528;11.010;2024-03-06T00:06:23;98262.19;;;11.27;62.14
79413;BME280;68863;49.528;11.010;2024-03-06T00:07:24;98264.78;;;11.16;62.43
79413;BME280;68863;49.528;11.010;2024-03-06T00:08:25;98267.56;;;11.25;62.05
79413;BME280;68863;49.528;11.010;2024-03-06T00:09:25;98268.56;;;11.36;61.71
79413;BME280;68863;49.528;11.010;2024-03-06T00:10:27;98269.22;;;11.26;61.82
79413;BME280;68863;49.528;11.010;2024-03-06T00:11:27;98267.06;;;11.20;62.32
79413;BME280;68863;49.528;11.010;2024-03-06T00:12:27;98272.38;;;11.32;61.67
79413;BME280;68863;49.528;11.010;2024-03-06T00:13:28;98272.75;;;11.38;61.65
79413;BME280;68863;49.528;11.010;2024-03-06T00:14:28;98272.53;;;11.41;61.46
79413;BME280;68863;49.528;11.010;2024-03-06T00:15:29;98268.00;;;11.43;61.55
79413;BME280;68863;49.528;11.010;2024-03-06T00:16:29;98270.84;;;11.40;61.50
79413;BME280;68863;49.528;11.010;2024-03-06T00:17:29;98273.00;;;11.35;61.90
79413;BME280;68863;49.528;11.010;2024-03-06T00:18:30;98271.22;;;11.36;61.54
79413;BME280;68863;49.528;11.010;2024-03-06T00:19:30;98279.34;;;11.44;61.46
79413;BME280;68863;49.528;11.010;2024-03-06T00:20:31;98273.31;;;11.31;61.79
79413;BME280;68863;49.528;11.010;2024-03-06T00:21:31;98273.25;;;11.43;61.34
79413;BME280;68863;49.528;11.010;2024-03-06T00:22:32;98275.66;;;11.46;61.01
79413;BME280;68863;49.528;11.010;2024-03-06T00:23:32;98274.44;;;11.39;61.45
79413;BME280;68863;49.528;11.010;2024-03-06T00:24:33;98274.44;;;11.39;61.33
79413;BME280;68863;49.528;11.010;2024-03-06T00:25:33;98273.88;;;11.23;61.78
79413;BME280;68863;49.528;11.010;2024-03-06T00:26:34;98272.38;;;11.32;61.60
79413;BME280;68863;49.528;11.010;2024-03-06T00:27:35;98278.41;;;11.21;61.53
79413;BME280;68863;49.528;11.010;2024-03-06T00:28:35;98279.31;;;11.33;61.29
79413;BME280;68863;49.528;11.010;2024-03-06T00:29:35;98281.38;;;11.40;61.38
79413;BME280;68863;49.528;11.010;2024-03-06T00:30:38;98292.28;;;11.23;61.77
79413;BME280;68863;49.528;11.010;2024-03-06T00:31:45;98295.84;;;11.22;62.10
79413;BME280;68863;49.528;11.010;2024-03-06T00:32:46;98292.44;;;11.09;62.29
79413;BME280;68863;49.528;11.010;2024-03-06T00:33:46;98297.25;;;11.15;62.22
79413;BME280;68863;49.528;11.010;2024-03-06T00:34:46;98303.13;;;11.18;62.21
79413;BME280;68863;49.528;11.010;2024-03-06T00:35:47;98291.78;;;11.18;62.06
79413;BME280;68863;49.528;11.010;2024-03-06T00:36:47;98297.91;;;11.06;62.72
79413;BME280;68863;49.528;11.010;2024-03-06T00:37:48;98300.63;;;11.17;62.26
79413;BME280;68863;49.528;11.010;2024-03-06T00:38:48;98299.72;;;11.05;62.60
79413;BME280;68863;49.528;11.010;2024-03-06T00:39:49;98304.47;;;11.24;62.28
79413;BME280;68863;49.528;11.010;2024-03-06T00:40:49;98307.25;;;11.34;61.71
79413;BME280;68863;49.528;11.010;2024-03-06T00:41:49;98304.84;;;11.31;61.57
79413;BME280;68863;49.528;11.010;2024-03-06T00:42:50;98309.53;;;11.38;61.39
79413;BME280;68863;49.528;11.010;2024-03-06T00:43:50;98294.72;;;11.37;61.35
79413;BME280;68863;49.528;11.010;2024-03-06T00:44:51;98300.47;;;11.42;61.28
79413;BME280;68863;49.528;11.010;2024-03-06T00:45:51;98312.34;;;11.48;61.08
79413;BME280;68863;49.528;11.010;2024-03-06T00:46:51;98313.56;;;11.31;61.44
79413;BME280;68863;49.528;11.010;2024-03-06T00:47:52;98315.69;;;11.26;61.91
79413;BME280;68863;49.528;11.010;2024-03-06T00:48:52;98316.38;;;11.17;62.19
79413;BME280;68863;49.528;11.010;2024-03-06T00:49:52;98315.56;;;11.03;62.62
79413;BME280;68863;49.528;11.010;2024-03-06T00:50:53;98319.56;;;11.09;62.30
79413;BME280;68863;49.528;11.010;2024-03-06T00:51:53;98315.88;;;11.36;61.83
79413;BME280;68863;49.528;11.010;2024-03-06T00:52:53;98315.06;;;11.35;61.75
79413;BME280;68863;49.528;11.010;2024-03-06T00:53:54;98312.63;;;11.32;61.83
79413;BME280;68863;49.528;11.010;2024-03-06T00:54:54;98315.75;;;11.13;62.12
79413;BME280;68863;49.528;11.010;2024-03-06T00:55:56;98310.50;;;11.13;62.55
79413;BME280;68863;49.528;11.010;2024-03-06T00:56:56;98317.63;;;11.24;61.99
79413;BME280;68863;49.528;11.010;2024-03-06T00:57:57;98317.91;;;11.32;61.70
79413;BME280;68863;49.528;11.010;2024-03-06T00:58:58;98315.00;;;11.24;61.84
79413;BME280;68863;49.528;11.010;2024-03-06T00:59:58;98320.47;;;11.21;62.01
79413;BME280;68863;49.528;11.010;2024-03-06T01:00:59;98315.31;;;11.19;61.91
79413;BME280;68863;49.528;11.010;2024-03-06T01:01:59;98317.63;;;11.24;61.90
79413;BME280;68863;49.528;11.010;2024-03-06T01:02:59;98318.50;;;11.12;62.09
79413;BME280;68863;49.528;11.010;2024-03-06T01:04:00;98311.13;;;11.17;62.17
79413;BME280;68863;49.528;11.010;2024-03-06T01:05:01;98313.00;;;11.15;62.12
79413;BME280;68863;49.528;11.010;2024-03-06T01:06:02;98318.88;;;11.18;61.85
79413;BME280;68863;49.528;11.010;2024-03-06T01:07:02;98317.28;;;11.04;62.17
79413;BME280;68863;49.528;11.010;2024-03-06T01:08:03;98314.88;;;11.25;61.76
79413;BME280;68863;49.528;11.010;2024-03-06T01:09:03;98317.09;;;11.43;61.39
79413;BME280;68863;49.528;11.010;2024-03-06T01:10:04;98316.94;;;11.33;61.28
79413;BME280;68863;49.528;11.010;2024-03-06T01:11:06;98313.00;;;11.15;62.09
79413;BME280;68863;49.528;11.010;2024-03-06T01:12:07;98311.28;;;11.02;62.63
79413;BME280;68863;49.528;11.010;2024-03-06T01:13:07;98307.13;;;11.11;62.08
79413;BME280;68863;49.528;11.010;2024-03-06T01:14:10;98306.16;;;11.25;61.60
79413;BME280;68863;49.528;11.010;2024-03-06T01:15:11;98302.56;;;11.26;61.63
79413;BME280;68863;49.528;11.010;2024-03-06T01:16:12;98305.19;;;11.26;61.67
79413;BME280;68863;49.528;11.010;2024-03-06T01:17:12;98311.47;;;11.36;61.59
79413;BME280;68863;49.528;11.010;2024-03-06T01:18:13;98315.38;;;11.31;61.44
79413;BME280;68863;49.528;11.010;2024-03-06T01:19:13;98309.00;;;11.22;61.68
79413;BME280;68863;49.528;11.010;2024-03-06T01:20:14;98306.97;;;11.25;61.81
79413;BME280;68863;49.528;11.010;2024-03-06T01:21:14;98308.03;;;11.23;61.72
79413;BME280;68863;49.528;11.010;2024-03-06T01:22:14;98305.03;;;11.16;61.97
79413;BME280;68863;49.528;11.010;2024-03-06T01:23:15;98308.91;;;11.23;61.90
79413;BME280;68863;49.528;11.010;2024-03-06T01:24:17;98303.66;;;11.35;61.49
79413;BME280;68863;49.528;11.010;2024-03-06T01:25:17;98302.06;;;11.21;61.75
79413;BME280;68863;49.528;11.010;2024-03-06T01:26:17;98304.06;;;11.17;61.99
79413;BME280;68863;49.528;11.010;2024-03-06T01:27:18;98303.94;;;11.19;61.93
79413;BME280;68863;49.528;11.010;2024-03-06T01:28:18;98295.38;;;11.17;61.81
79413;BME280;68863;49.528;11.010;2024-03-06T01:29:18;98296.81;;;11.21;61.91
79413;BME280;68863;49.528;11.010;2024-03-06T01:30:19;98303.91;;;11.32;61.63
79413;BME280;68863;49.528;11.010;2024-03-06T01:31:19;98300.50;;;11.18;61.88
79413;BME280;68863;49.528;11.010;2024-03-06T01:32:19;98302.28;;;11.18;61.81
79413;BME280;68863;49.528;11.010;2024-03-06T01:33:20;98302.34;;;11.05;62.32
79413;BME280;68863;49.528;11.010;2024-03-06T01:34:20;98298.34;;;10.99;62.41
79413;BME280;68863;49.528;11.010;2024-03-06T01:35:22;98297.38;;;11.13;62.35
79413;BME280;68863;49.528;11.010;2024-03-06T01:36:23;98294.53;;;11.16;62.23
79413;BME280;68863;49.528;11.010;2024-03-06T01:37:24;98299.16;;;11.13;62.41
79413;BME280;68863;49.528;11.010;2024-03-06T01:38:24;98294.88;;;10.75;63.42
79413;BME280;68863;49.528;11.010;2024-03-06T01:39:24;98288.22;;;10.82;63.46
79413;BME280;68863;49.528;11.010;2024-03-06T01:40:25;98296.19;;;10.93;62.84
79413;BME280;68863;49.528;11.010;2024-03-06T01:41:25;98299.25;;;11.11;62.88
79413;BME280;68863;49.528;11.010;2024-03-06T01:42:26;98296.91;;;10.95;63.18
79413;BME280;68863;49.528;11.010;2024-03-06T01:43:27;98291.22;;;11.01;62.85
79413;BME280;68863;49.528;11.010;2024-03-06T01:44:27;98301.66;;;10.90;63.24
79413;BME280;68863;49.528;11.010;2024-03-06T01:45:28;98295.50;;;11.02;62.82
79413;BME280;68863;49.528;11.010;2024-03-06T01:46:28;98303.06;;;11.07;62.64
79413;BME280;68863;49.528;11.010;2024-03-06T01:47:29;98303.78;;;10.85;63.14
79413;BME280;68863;49.528;11.010;2024-03-06T01:48:30;98301.88;;;10.87;63.30
79413;BME280;68863;49.528;11.010;2024-03-06T01:49:31;98301.78;;;10.89;63.17
79413;BME280;68863;49.528;11.010;2024-03-06T01:50:31;98303.31;;;10.91;63.19
79413;BME280;68863;49.528;11.010;2024-03-06T01:51:32;98303.44;;;10.90;63.44
79413;BME280;68863;49.528;11.010;2024-03-06T01:52:32;98300.06;;;11.00;62.79
79413;BME280;68863;49.528;11.010;2024-03-06T01:53:34;98297.50;;;11.12;62.49
79413;BME280;68863;49.528;11.010;2024-03-06T01:54:35;98303.25;;;10.80;63.55
79413;BME280;68863;49.528;11.010;2024-03-06T01:55:36;98303.94;;;10.95;63.18
79413;BME280;68863;49.528;11.010;2024-03-06T01:56:38;98312.81;;;10.81;63.52
79413;BME280;68863;49.528;11.010;2024-03-06T01:57:42;98311.66;;;10.85;63.45
79413;BME280;68863;49.528;11.010;2024-03-06T01:58:42;98310.31;;;11.03;62.79
79413;BME280;68863;49.528;11.010;2024-03-06T01:59:46;98312.00;;;11.04;62.93
79413;BME280;68863;49.528;11.010;2024-03-06T02:00:47;98306.22;;;11.12;62.52
79413;BME280;68863;49.528;11.010;2024-03-06T02:01:48;98310.28;;;11.16;62.33
79413;BME280;68863;49.528;11.010;2024-03-06T02:02:52;98317.28;;;11.04;62.77
79413;BME280;68863;49.528;11.010;2024-03-06T02:03:52;98314.09;;;11.12;62.58
79413;BME280;68863;49.528;11.010;2024-03-06T02:04:54;98313.81;;;10.91;62.95
79413;BME280;68863;49.528;11.010;2024-03-06T02:05:55;98308.69;;;10.90;63.08
79413;BME280;68863;49.528;11.010;2024-03-06T02:06:55;98310.09;;;11.07;62.80
79413;BME280;68863;49.528;11.010;2024-03-06T02:07:57;98301.59;;;11.03;63.00
79413;BME280;68863;49.528;11.010;2024-03-06T02:08:57;98308.47;;;10.93;63.15
79413;BME280;68863;49.528;11.010;2024-03-06T02:09:59;98313.06;;;11.02;63.09
79413;BME280;68863;49.528;11.010;2024-03-06T02:10:59;98311.19;;;11.04;62.95
79413;BME280;68863;49.528;11.010;2024-03-06T02:12:02;98308.03;;;10.99;62.82
79413;BME280;68863;49.528;11.010;2024-03-06T02:13:03;98304.34;;;11.01;62.90
79413;BME280;68863;49.528;11.010;2024-03-06T02:14:03;98308.84;;;10.99;62.74
79413;BME280;68863;49.528;11.010;2024-03-06T02:15:07;98309.88;;;11.10;62.41
79413;BME280;68863;49.528;11.010;2024-03-06T02:16:09;98305.59;;;11.09;62.76
79413;BME280;68863;49.528;11.010;2024-03-06T02:17:10;98304.69;;;10.84;63.15
79413;BME280;68863;49.528;11.010;2024-03-06T02:18:10;98303.84;;;10.96;63.05
79413;BME280;68863;49.528;11.010;2024-03-06T02:19:11;98299.81;;;11.03;62.97
79413;BME280;68863;49.528;11.010;2024-03-06T02:20:11;98301.72;;;11.01;62.90
79413;BME280;68863;49.528;11.010;2024-03-06T02:21:14;98301.38;;;10.82;63.05
79413;BME280;68863;49.528;11.010;2024-03-06T02:22:14;98301.16;;;10.85;63.42
79413;BME280;68863;49.528;11.010;2024-03-06T02:23:15;98297.31;;;10.65;63.91
79413;BME280;68863;49.528;11.010;2024-03-06T02:24:17;98301.19;;;10.60;64.14
79413;BME280;68863;49.528;11.010;2024-03-06T02:25:18;98300.03;;;10.64;64.36
79413;BME280;68863;49.528;11.010;2024-03-06T02:26:20;98290.44;;;10.75;63.85
79413;BME280;68863;49.528;11.010;2024-03-06T02:27:20;98297.63;;;10.61;64.08
79413;BME280;68863;49.528;11.010;2024-03-06T02:28:21;98299.53;;;10.59;64.35
79413;BME280;68863;49.528;11.010;2024-03-06T02:29:23;98297.19;;;10.67;64.26
79413;BME280;68863;49.528;11.010;2024-03-06T02:30:23;98300.78;;;10.66;64.01
79413;BME280;68863;49.528;11.010;2024-03-06T02:31:24;98300.56;;;10.56;64.43
79413;BME280;68863;49.528;11.010;2024-03-06T02:32:24;98298.25;;;10.64;64.00
79413;BME280;68863;49.528;11.010;2024-03-06T02:33:25;98291.94;;;10.67;64.07
79413;BME280;68863;49.528;11.010;2024-03-06T02:34:25;98292.22;;;10.75;63.83
79413;BME280;68863;49.528;11.010;2024-03-06T02:35:26;98289.56;;;10.88;63.50
79413;BME280;68863;49.528;11.010;2024-03-06T02:36:26;98296.31;;;10.79;63.36
79413;BME280;68863;49.528;11.010;2024-03-06T02:37:27;98293.63;;;10.68;63.67
79413;BME280;68863;49.528;11.010;2024-03-06T02:38:28;98303.47;;;10.77;63.71
79413;BME280;68863;49.528;11.010;2024-03-06T02:40:31;98290.84;;;10.82;63.20
79413;BME280;68863;49.528;11.010;2024-03-06T02:41:32;98282.22;;;10.80;63.43
79413;BME280;68863;49.528;11.010;2024-03-06T02:42:32;98289.72;;;10.73;63.65
79413;BME280;68863;49.528;11.010;2024-03-06T02:43:33;98285.38;;;10.85;63.18
79413;BME280;68863;49.528;11.010;2024-03-06T02:44:34;98287.28;;;10.83;63.08
79413;BME280;68863;49.528;11.010;2024-03-06T02:45:34;98285.09;;;10.77;63.39
79413;BME280;68863;49.528;11.010;2024-03-06T02:46:34;98286.09;;;10.87;63.28
79413;BME280;68863;49.528;11.010;2024-03-06T02:47:35;98292.31;;;10.86;62.97
79413;BME280;68863;49.528;11.010;2024-03-06T02:48:35;98280.34;;;10.82;63.07
79413;BME280;68863;49.528;11.010;2024-03-06T02:49:36;98285.16;;;10.88;63.18
79413;BME280;68863;49.528;11.010;2024-03-06T02:50:36;98282.16;;;10.82;63.02
79413;BME280;68863;49.528;11.010;2024-03-06T02:51:36;98283.56;;;10.62;63.85
79413;BME280;68863;49.528;11.010;2024-03-06T02:52:37;98287.09;;;10.73;63.62
79413;BME280;68863;49.528;11.010;2024-03-06T02:53:37;98283.31;;;10.77;63.47
79413;BME280;68863;49.528;11.010;2024-03-06T02:54:37;98289.41;;;10.78;63.19
79413;BME280;68863;49.528;11.010;2024-03-06T02:55:40;98293.22;;;10.61;63.96
79413;BME280;68863;49.528;11.010;2024-03-06T02:56:41;98282.91;;;10.71;63.68
79413;BME280;68863;49.528;11.010;2024-03-06T02:57:41;98285.22;;;10.63;63.88
79413;BME280;68863;49.528;11.010;2024-03-06T02:58:42;98290.28;;;10.66;63.78
79413;BME280;68863;49.528;11.010;2024-03-06T02:59:43;98287.84;;;10.63;63.93
79413;BME280;68863;49.528;11.010;2024-03-06T03:00:43;98293.53;;;10.57;64.17
79413;BME280;68863;49.528;11.010;2024-03-06T03:01:44;98294.28;;;10.59;64.24
79413;BME280;68863;49.528;11.010;2024-03-06T03:02:44;98292.59;;;10.58;64.25
79413;BME280;68863;49.528;11.010;2024-03-06T03:03:45;98298.88;;;10.68;64.30
79413;BME280;68863;49.528;11.010;2024-03-06T03:04:47;98295.72;;;10.63;64.02
79413;BME280;68863;49.528;11.010;2024-03-06T03:05:47;98295.00;;;10.48;64.46
79413;BME280;68863;49.528;11.010;2024-03-06T03:06:47;98292.75;;;10.80;63.83
79413;BME280;68863;49.528;11.010;2024-03-06T03:07:48;98293.06;;;10.75;63.58
79413;BME280;68863;49.528;11.010;2024-03-06T03:08:49;98290.72;;;10.84;63.45
79413;BME280;68863;49.528;11.010;2024-03-06T03:09:49;98290.78;;;10.71;63.63
79413;BME280;68863;49.528;11.010;2024-03-06T03:10:50;98285.41;;;10.72;63.78
79413;BME280;68863;49.528;11.010;2024-03-06T03:11:51;98288.81;;;10.49;64.43
79413;BME280;68863;49.528;11.010;2024-03-06T03:12:51;98285.25;;;10.37;65.06
79413;BME280;68863;49.528;11.010;2024-03-06T03:13:52;98292.50;;;10.46;64.90
79413;BME280;68863;49.528;11.010;2024-03-06T03:14:52;98289.56;;;10.51;64.58
79413;BME280;68863;49.528;11.010;2024-03-06T03:15:53;98287.97;;;10.61;64.28
79413;BME280;68863;49.528;11.010;2024-03-06T03:16:53;98291.03;;;10.55;64.32
79413;BME280;68863;49.528;11.010;2024-03-06T03:17:53;98287.44;;;10.69;64.28
79413;BME280;68863;49.528;11.010;2024-03-06T03:18:54;98286.19;;;10.62;64.19
79413;BME280;68863;49.528;11.010;2024-03-06T03:19:54;98281.28;;;10.19;65.40
79413;BME280;68863;49.528;11.010;2024-03-06T03:20:55;98285.78;;;10.29;65.63
79413;BME280;68863;49.528;11.010;2024-03-06T03:21:55;98282.09;;;10.45;64.75
79413;BME280;68863;49.528;11.010;2024-03-06T03:22:55;98281.34;;;10.55;64.58
79413;BME280;68863;49.528;11.010;2024-03-06T03:23:56;98279.19;;;10.49;64.73
79413;BME280;68863;49.528;11.010;2024-03-06T03:24:56;98277.38;;;10.50;64.63
79413;BME280;68863;49.528;11.010;2024-03-06T03:25:57;98276.97;;;10.43;64.89
79413;BME280;68863;49.528;11.010;2024-03-06T03:26:57;98280.22;;;10.47;64.73
79413;BME280;68863;49.528;11.010;2024-03-06T03:27:58;98284.31;;;10.51;64.42
79413;BME280;68863;49.528;11.010;2024-03-06T03:28:59;98289.03;;;10.59;64.57
79413;BME280;68863;49.528;11.010;2024-03-06T03:30:00;98289.22;;;10.55;64.50
79413;BME280;68863;49.528;11.010;2024-03-06T03:31:00;98289.88;;;10.46;64.68
79413;BME280;68863;49.528;11.010;2024-03-06T03:32:01;98285.59;;;10.45;64.88
79413;BME280;68863;49.528;11.010;2024-03-06T03:33:01;98286.50;;;10.44;64.56
79413;BME280;68863;49.528;11.010;2024-03-06T03:34:01;98288.50;;;10.15;65.94
79413;BME280;68863;49.528;11.010;2024-03-06T03:35:03;98294.09;;;10.36;65.26
79413;BME280;68863;49.528;11.010;2024-03-06T03:36:05;98291.38;;;10.38;65.23
79413;BME280;68863;49.528;11.010;2024-03-06T03:37:07;98290.94;;;10.44;65.29
79413;BME280;68863;49.528;11.010;2024-03-06T03:38:09;98296.81;;;10.47;65.18
79413;BME280;68863;49.528;11.010;2024-03-06T03:39:10;98295.53;;;10.66;64.42
79413;BME280;68863;49.528;11.010;2024-03-06T03:40:17;98296.91;;;10.59;64.85
79413;BME280;68863;49.528;11.010;2024-03-06T03:41:18;98303.69;;;10.74;64.41
79413;BME280;68863;49.528;11.010;2024-03-06T03:42:18;98295.91;;;10.85;63.40
79413;BME280;68863;49.528;11.010;2024-03-06T03:43:19;98298.22;;;10.77;63.90
79413;BME280;68863;49.528;11.010;2024-03-06T03:44:21;98292.38;;;10.61;64.32
79413;BME280;68863;49.528;11.010;2024-03-06T03:45:21;98301.31;;;10.58;64.65
79413;BME280;68863;49.528;11.010;2024-03-06T03:46:21;98296.44;;;10.65;64.56
79413;BME280;68863;49.528;11.010;2024-03-06T03:47:22;98295.16;;;10.83;64.25
79413;BME280;68863;49.528;11.010;2024-03-06T03:48:22;98294.75;;;10.76;64.18
79413;BME280;68863;49.528;11.010;2024-03-06T03:49:23;98297.56;;;10.86;63.72
79413;BME280;68863;49.528;11.010;2024-03-06T03:50:23;98305.81;;;10.69;64.14
79413;BME280;68863;49.528;11.010;2024-03-06T03:51:23;98306.00;;;10.78;64.05
79413;BME280;68863;49.528;11.010;2024-03-06T03:52:24;98297.78;;;10.83;63.94
79413;BME280;68863;49.528;11.010;2024-03-06T03:53:24;98304.19;;;10.79;63.94
79413;BME280;68863;49.528;11.010;2024-03-06T03:54:25;98302.16;;;10.95;63.74
79413;BME280;68863;49.528;11.010;2024-03-06T03:55:25;98295.44;;;10.91;63.69
79413;BME280;68863;49.528;11.010;2024-03-06T03:56:25;98302.69;;;10.88;63.79
79413;BME280;68863;49.528;11.010;2024-03-06T03:57:26;98310.09;;;10.70;64.26
79413;BME280;68863;49.528;11.010;2024-03-06T03:58:26;98299.94;;;10.52;64.93
79413;BME280;68863;49.528;11.010;2024-03-06T03:59:27;98305.63;;;10.46;65.09
79413;BME280;68863;49.528;11.010;2024-03-06T04:00:27;98304.25;;;10.53;65.11
79413;BME280;68863;49.528;11.010;2024-03-06T04:01:27;98310.88;;;10.46;65.37
79413;BME280;68863;49.528;11.010;2024-03-06T04:02:28;98308.16;;;10.35;65.43
79413;BME280;68863;49.528;11.010;2024-03-06T04:03:28;98309.19;;;10.58;65.17
79413;BME280;68863;49.528;11.010;2024-03-06T04:04:29;98309.63;;;10.39;65.69
79413;BME280;68863;49.528;11.010;2024-03-06T04:05:29;98306.16;;;10.51;65.26
79413;BME280;68863;49.528;11.010;2024-03-06T04:06:29;98305.81;;;10.56;64.95
79413;BME280;68863;49.528;11.010;2024-03-06T04:07:30;98313.38;;;10.61;64.81
79413;BME280;68863;49.528;11.010;2024-03-06T04:08:30;98317.38;;;10.53;65.14
79413;BME280;68863;49.528;11.010;2024-03-06T04:09:33;98317.69;;;10.62;64.79
79413;BME280;68863;49.528;11.010;2024-03-06T04:10:37;98309.50;;;10.53;65.33
79413;BME280;68863;49.528;11.010;2024-03-06T04:11:37;98312.63;;;10.20;66.33
79413;BME280;68863;49.528;11.010;2024-03-06T04:12:38;98320.28;;;9.85;67.42
79413;BME280;68863;49.528;11.010;2024-03-06T04:13:39;98314.94;;;9.99;67.03
79413;BME280;68863;49.528;11.010;2024-03-06T04:14:40;98315.91;;;10.24;66.21
79413;BME280;68863;49.528;11.010;2024-03-06T04:15:40;98319.50;;;10.36;65.96
79413;BME280;68863;49.528;11.010;2024-03-06T04:16:40;98320.13;;;10.26;66.18
79413;BME280;68863;49.528;11.010;2024-03-06T04:17:41;98320.31;;;10.36;65.98
79413;BME280;68863;49.528;11.010;2024-03-06T04:18:41;98319.38;;;10.12;66.50
79413;BME280;68863;49.528;11.010;2024-03-06T04:19:41;98318.63;;;10.22;66.39
79413;BME280;68863;49.528;11.010;2024-03-06T04:20:42;98325.06;;;10.31;66.25
79413;BME280;68863;49.528;11.010;2024-03-06T04:21:42;98327.56;;;10.33;65.97
79413;BME280;68863;49.528;11.010;2024-03-06T04:22:43;98325.91;;;10.32;66.37
79413;BME280;68863;49.528;11.010;2024-03-06T04:23:44;98320.31;;;10.23;65.97
79413;BME280;68863;49.528;11.010;2024-03-06T04:24:44;98324.53;;;10.39;65.79
79413;BME280;68863;49.528;11.010;2024-03-06T04:25:45;98322.06;;;10.10;66.87
79413;BME280;68863;49.528;11.010;2024-03-06T04:26:45;98324.59;;;10.24;66.61
79413;BME280;68863;49.528;11.010;2024-03-06T04:27:45;98329.97;;;10.23;66.29
79413;BME280;68863;49.528;11.010;2024-03-06T04:28:46;98328.28;;;10.09;66.69
79413;BME280;68863;49.528;11.010;2024-03-06T04:29:47;98318.22;;;10.16;66.85
79413;BME280;68863;49.528;11.010;2024-03-06T04:30:47;98330.16;;;10.07;66.79
79413;BME280;68863;49.528;11.010;2024-03-06T04:31:47;98319.44;;;10.10;67.04
79413;BME280;68863;49.528;11.010;2024-03-06T04:32:48;98326.50;;;10.22;66.73
79413;BME280;68863;49.528;11.010;2024-03-06T04:33:48;98331.56;;;10.38;66.16
79413;BME280;68863;49.528;11.010;2024-03-06T04:34:49;98325.06;;;10.31;66.30
79413;BME280;68863;49.528;11.010;2024-03-06T04:35:49;98329.47;;;10.43;65.69
79413;BME280;68863;49.528;11.010;2024-03-06T04:36:49;98336.06;;;10.36;65.78
79413;BME280;68863;49.528;11.010;2024-03-06T04:37:50;98338.38;;;10.53;65.55
79413;BME280;68863;49.528;11.010;2024-03-06T04:38:50;98334.59;;;10.58;65.21
79413;BME280;68863;49.528;11.010;2024-03-06T04:39:51;98338.69;;;10.36;65.51
79413;BME280;68863;49.528;11.010;2024-03-06T04:40:52;98334.25;;;10.24;66.65
79413;BME280;68863;49.528;11.010;2024-03-06T04:41:52;98344.00;;;9.96;67.47
79413;BME280;68863;49.528;11.010;2024-03-06T04:42:52;98342.00;;;10.13;67.20
79413;BME280;68863;49.528;11.010;2024-03-06T04:43:53;98331.44;;;10.40;66.32
79413;BME280;68863;49.528;11.010;2024-03-06T04:44:53;98339.22;;;10.41;65.91
79413;BME280;68863;49.528;11.010;2024-03-06T04:45:54;98338.44;;;10.14;66.96
79413;BME280;68863;49.528;11.010;2024-03-06T04:46:54;98333.19;;;10.14;66.70
79413;BME280;68863;49.528;11.010;2024-03-06T04:47:55;98339.72;;;10.21;66.49
79413;BME280;68863;49.528;11.010;2024-03-06T04:48:55;98337.72;;;10.24;66.59
79413;BME280;68863;49.528;11.010;2024-03-06T04:49:55;98336.06;;;10.23;66.69
79413;BME280;68863;49.528;11.010;2024-03-06T04:50:57;98341.63;;;10.32;66.49
79413;BME280;68863;49.528;11.010;2024-03-06T04:51:58;98336.69;;;10.40;65.92
79413;BME280;68863;49.528;11.010;2024-03-06T04:52:58;98333.75;;;10.44;65.78
79413;BME280;68863;49.528;11.010;2024-03-06T04:53:59;98336.06;;;10.49;65.42
79413;BME280;68863;49.528;11.010;2024-03-06T04:54:59;98337.84;;;10.48;65.37
79413;BME280;68863;49.528;11.010;2024-03-06T04:55:59;98336.38;;;10.57;65.30
79413;BME280;68863;49.528;11.010;2024-03-06T04:57:00;98333.94;;;10.67;64.76
79413;BME280;68863;49.528;11.010;2024-03-06T04:58:00;98341.28;;;10.74;64.71
79413;BME280;68863;49.528;11.010;2024-03-06T04:59:00;98337.09;;;10.59;65.02
79413;BME280;68863;49.528;11.010;2024-03-06T05:00:03;98338.78;;;10.60;65.04
79413;BME280;68863;49.528;11.010;2024-03-06T05:01:08;98346.66;;;10.73;64.74
79413;BME280;68863;49.528;11.010;2024-03-06T05:02:08;98341.41;;;10.73;64.50
79413;BME280;68863;49.528;11.010;2024-03-06T05:03:09;98343.16;;;10.72;64.57
79413;BME280;68863;49.528;11.010;2024-03-06T05:04:09;98345.09;;;10.70;64.64
79413;BME280;68863;49.528;11.010;2024-03-06T05:05:10;98347.78;;;10.82;64.59
79413;BME280;68863;49.528;11.010;2024-03-06T05:06:11;98351.13;;;10.84;64.31
79413;BME280;68863;49.528;11.010;2024-03-06T05:07:11;98349.59;;;10.81;64.29
79413;BME280;68863;49.528;11.010;2024-03-06T05:08:13;98354.50;;;10.86;64.16
79413;BME280;68863;49.528;11.010;2024-03-06T05:09:13;98352.59;;;10.88;64.10
79413;BME280;68863;49.528;11.010;2024-03-06T05:10:15;98356.00;;;10.77;64.69
79413;BME280;68863;49.528;11.010;2024-03-06T05:11:16;98355.16;;;10.64;64.86
79413;BME280;68863;49.528;11.010;2024-03-06T05:12:16;98355.06;;;10.65;64.91
79413;BME280;68863;49.528;11.010;2024-03-06T05:13:17;98357.91;;;10.62;65.03
79413;BME280;68863;49.528;11.010;2024-03-06T05:14:17;98356.44;;;10.58;64.90
79413;BME280;68863;49.528;11.010;2024-03-06T05:15:17;98357.28;;;10.46;65.36
79413;BME280;68863;49.528;11.010;2024-03-06T05:16:19;98361.78;;;10.57;65.30
79413;BME280;68863;49.528;11.010;2024-03-06T05:17:22;98358.63;;;10.64;65.15
79413;BME280;68863;49.528;11.010;2024-03-06T05:18:23;98362.50;;;10.71;64.81